June Lake Junction, California
Current Conditions -  °F | °C
As of 1:55 PM on Friday 24 Oct 2014 (Local Time) from KMMH Reporting Station
Clear Clear  
Wind Chill: 70°   Ceiling: Unl
Heat Index: 70°   Visibility: 10mi
Dew Point: 18°   Wind: 13mph
Humidity: 14%   Direction: 120°ESE
Pressure: 30.17"   Gusts: 21mph
Location:  37.8196°N, 119.076°W
Report Text: KMMH 242055Z AUTO 12011G18KT 10SM CLR 21/M08 A3017 RMK AO1
Loading
Personal Weather Stations






























Interactive Weather Map
Tropical Storm Tracking
New forecast layout! Learn more

10-Day Weather Forecast

Advertisements
Track Severe Weather on mobile